Wilton, New York
Current Conditions -  °F | °C
As of 12:26 PM on Wednesday 26 Nov 2014 (Local Time) from KGFL Reporting Station
Moderate Snow Moderate Snow  
Wind Chill: 26°   Ceiling: 1400
Heat Index: 32°   Visibility: 0.5mi
Dew Point: 30°   Wind: 6mph
Humidity: 92%   Direction: 10°N
Pressure: 30.15"   Gusts: NA
Location:  43.1979°N, 73.6839°W
Report Text: KGFL 261726Z AUTO 01005KT 1/2SM SN FG FEW008 OVC014 00/M01 A3015 RMK AO2 SNB01 P0002 T00001011
Loading
Personal Weather Stations






























Interactive Weather Map New forecast layout! Learn more

10-Day Weather Forecast

Advertisements
Track Severe Weather on mobile